createdAt,value
2018-06-09T00:01:01.745Z,58.81
2018-06-09T00:02:07.913Z,58.67
2018-06-09T00:03:13.794Z,59.08
2018-06-09T00:04:20.006Z,58.97
2018-06-09T00:05:26.201Z,58.97
2018-06-09T00:06:32.443Z,58.72
2018-06-09T00:07:38.661Z,58.76
2018-06-09T00:08:44.921Z,58.83
2018-06-09T00:09:50.522Z,58.99
2018-06-09T00:10:56.417Z,58.86
2018-06-09T00:12:02.688Z,58.77
2018-06-09T00:13:09.747Z,58.65
2018-06-09T00:14:15.902Z,58.73
2018-06-09T00:15:22.048Z,58.59
2018-06-09T00:16:28.236Z,58.55
2018-06-09T00:17:34.489Z,59.12
2018-06-09T00:18:40.744Z,58.57
2018-06-09T00:19:46.652Z,58.65
2018-06-09T00:20:52.792Z,58.39
2018-06-09T00:21:58.964Z,58.90
2018-06-09T00:23:04.833Z,58.36
2018-06-09T00:24:11.084Z,58.48
2018-06-09T00:25:17.253Z,59.20
2018-06-09T00:26:23.476Z,58.12
2018-06-09T00:27:29.675Z,58.21
2018-06-09T00:28:35.923Z,58.00
2018-06-09T00:29:42.126Z,58.30
2018-06-09T00:30:48.342Z,58.26
2018-06-09T00:31:54.580Z,58.11
2018-06-09T00:33:00.810Z,58.37
2018-06-09T00:34:07.120Z,58.16
2018-06-09T00:35:13.374Z,58.22
2018-06-09T00:36:19.525Z,58.27
2018-06-09T00:37:25.738Z,58.63
2018-06-09T00:38:32.003Z,59.19
2018-06-09T00:39:38.211Z,58.75
2018-06-09T00:40:49.690Z,58.94
2018-06-09T00:41:55.573Z,59.12
2018-06-09T00:43:01.816Z,59.82
2018-06-09T00:44:07.693Z,59.76
2018-06-09T00:45:13.988Z,59.60
2018-06-09T00:46:20.163Z,59.92
2018-06-09T00:47:26.410Z,60.01
2018-06-09T00:48:33.619Z,59.72
2018-06-09T00:49:40.046Z,59.54
2018-06-09T00:50:46.278Z,59.44
2018-06-09T00:51:52.467Z,59.30
2018-06-09T00:52:58.710Z,58.97
2018-06-09T00:54:04.931Z,58.50
2018-06-09T00:55:11.168Z,59.93
2018-06-09T00:57:56.979Z,61.61
2018-06-09T00:59:04.895Z,60.88
2018-06-09T01:00:10.786Z,61.24
2018-06-09T01:01:16.361Z,60.09
2018-06-09T01:02:22.494Z,60.00
2018-06-09T01:03:28.777Z,61.08
2018-06-09T01:04:35.007Z,61.16
2018-06-09T01:05:41.248Z,59.85
2018-06-09T01:06:47.506Z,59.47
2018-06-09T01:07:53.395Z,60.28
2018-06-09T01:08:59.607Z,59.55
2018-06-09T01:10:05.476Z,59.60
2018-06-09T01:11:11.074Z,57.60
2018-06-09T01:12:17.282Z,57.70
2018-06-09T01:13:23.507Z,59.28
2018-06-09T01:14:29.423Z,59.39
2018-06-09T01:15:35.368Z,58.74
2018-06-09T01:16:41.611Z,57.97
2018-06-09T01:17:47.491Z,58.59
2018-06-09T01:18:53.734Z,58.50
2018-06-09T01:19:59.956Z,58.72
2018-06-09T01:21:05.535Z,59.98
2018-06-09T01:22:11.730Z,59.39
2018-06-09T01:23:17.977Z,57.79
2018-06-09T01:24:24.251Z,58.91
2018-06-09T01:25:30.447Z,58.32
2018-06-09T01:26:36.686Z,57.72
2018-06-09T01:27:42.881Z,57.29
2018-06-09T01:28:49.079Z,57.54
2018-06-09T01:29:55.254Z,56.33
2018-06-09T01:31:01.430Z,58.57
2018-06-09T01:32:07.742Z,58.91
2018-06-09T01:33:13.891Z,58.15
2018-06-09T01:34:20.096Z,58.74
2018-06-09T01:35:26.041Z,59.60
2018-06-09T01:36:32.231Z,59.78
2018-06-09T01:37:38.406Z,57.92
2018-06-09T01:38:44.678Z,60.10
2018-06-09T01:39:50.892Z,59.54
2018-06-09T01:40:57.141Z,58.71
2018-06-09T01:42:02.999Z,58.31
2018-06-09T01:43:09.232Z,60.35
2018-06-09T01:44:15.400Z,60.24
2018-06-09T01:45:21.626Z,59.29
2018-06-09T01:46:27.830Z,58.54
2018-06-09T01:47:34.048Z,58.25
2018-06-09T01:48:40.259Z,57.63
2018-06-09T01:49:46.505Z,58.60
2018-06-09T01:50:52.657Z,59.17
2018-06-09T01:51:58.809Z,58.38
2018-06-09T01:53:05.024Z,58.65
2018-06-09T01:54:11.258Z,60.54
2018-06-09T01:55:17.412Z,60.88
2018-06-09T01:56:23.608Z,60.38
2018-06-09T01:57:29.820Z,60.33
2018-06-09T01:58:36.100Z,61.04
2018-06-09T01:59:42.355Z,61.25
2018-06-09T02:00:48.596Z,61.63
2018-06-09T02:01:54.522Z,61.75
2018-06-09T02:03:00.469Z,62.47
2018-06-09T02:04:07.662Z,63.38
2018-06-09T02:05:13.931Z,63.08
2018-06-09T02:06:19.856Z,61.92
2018-06-09T02:07:26.219Z,62.42
2018-06-09T02:08:32.408Z,62.05
2018-06-09T02:09:39.467Z,63.18
2018-06-09T02:10:45.692Z,62.56
2018-06-09T02:11:51.920Z,62.58
2018-06-09T02:12:58.122Z,62.78
2018-06-09T02:14:04.326Z,63.23
2018-06-09T02:15:10.532Z,63.69
2018-06-09T02:16:16.719Z,64.80
2018-06-09T02:17:22.950Z,65.42
2018-06-09T02:18:29.132Z,65.59
2018-06-09T02:19:35.445Z,65.10
2018-06-09T02:20:41.635Z,65.43
2018-06-09T02:21:47.807Z,65.36
2018-06-09T02:22:53.950Z,65.16
2018-06-09T02:24:00.139Z,65.56
2018-06-09T02:25:06.386Z,65.46
2018-06-09T02:26:12.593Z,65.60
2018-06-09T02:27:18.803Z,65.37
2018-06-09T02:28:24.993Z,65.53
2018-06-09T02:29:31.251Z,65.76
2018-06-09T02:30:37.532Z,65.70
2018-06-09T02:31:43.702Z,65.67
2018-06-09T02:32:49.874Z,65.19
2018-06-09T02:33:56.085Z,65.50
2018-06-09T02:35:01.985Z,65.61
2018-06-09T02:36:08.155Z,66.00
2018-06-09T02:37:14.091Z,65.86
2018-06-09T02:38:20.332Z,65.64
2018-06-09T02:39:26.524Z,66.27
2018-06-09T02:40:32.670Z,65.97
2018-06-09T02:41:38.864Z,66.17
2018-06-09T02:42:45.071Z,66.13
2018-06-09T02:43:51.291Z,65.72
2018-06-09T02:44:57.524Z,67.14
2018-06-09T02:46:03.715Z,67.73
2018-06-09T02:47:09.908Z,67.33
2018-06-09T02:48:16.155Z,66.74
2018-06-09T02:49:22.334Z,67.37
2018-06-09T02:50:28.539Z,68.15
2018-06-09T02:51:34.784Z,68.00
2018-06-09T02:52:40.691Z,68.20
2018-06-09T02:53:46.839Z,68.52
2018-06-09T02:54:53.056Z,68.76
2018-06-09T02:55:59.783Z,68.92
2018-06-09T02:57:06.977Z,69.63
2018-06-09T02:58:13.487Z,69.65
2018-06-09T02:59:19.664Z,69.69
2018-06-09T03:00:25.935Z,69.84
2018-06-09T03:01:32.222Z,70.11
2018-06-09T03:02:38.410Z,70.37
2018-06-09T03:03:44.574Z,70.91
2018-06-09T03:04:50.733Z,69.75
2018-06-09T03:05:56.988Z,70.34
2018-06-09T03:07:03.198Z,69.79
2018-06-09T03:08:09.365Z,69.65
2018-06-09T03:09:15.255Z,69.59
2018-06-09T03:10:21.467Z,69.70
2018-06-09T03:11:27.618Z,69.47
2018-06-09T03:12:33.817Z,69.34
2018-06-09T03:13:40.069Z,69.81
2018-06-09T03:14:46.273Z,69.08
2018-06-09T03:15:52.527Z,69.09
2018-06-09T03:16:58.455Z,68.78
2018-06-09T03:18:04.359Z,68.45
2018-06-09T03:19:10.548Z,68.83
2018-06-09T03:20:16.779Z,68.58
2018-06-09T03:21:22.977Z,68.17
2018-06-09T03:22:29.177Z,68.18
2018-06-09T03:23:35.341Z,68.39
2018-06-09T03:24:41.535Z,68.23
2018-06-09T03:25:47.474Z,68.00
2018-06-09T03:26:53.595Z,68.38
2018-06-09T03:27:59.781Z,68.33
2018-06-09T03:29:06.060Z,68.28
2018-06-09T03:30:12.277Z,68.25
2018-06-09T03:31:18.465Z,68.08
2018-06-09T03:32:24.594Z,68.39
2018-06-09T03:33:30.815Z,68.64
2018-06-09T03:34:36.994Z,68.76
2018-06-09T03:35:43.174Z,69.26
2018-06-09T03:36:49.355Z,69.23
2018-06-09T03:37:55.514Z,68.97
2018-06-09T03:39:01.686Z,69.20
2018-06-09T03:40:07.248Z,69.42
2018-06-09T03:41:13.588Z,69.52
2018-06-09T03:42:19.783Z,69.57
2018-06-09T03:43:26.073Z,70.41
2018-06-09T03:44:32.439Z,70.60
2018-06-09T03:45:38.618Z,70.93
2018-06-09T03:46:44.844Z,70.96
2018-06-09T03:47:50.999Z,71.30
2018-06-09T03:48:57.199Z,70.78
2018-06-09T03:50:03.594Z,71.12
2018-06-09T03:51:09.799Z,70.79
2018-06-09T03:52:16.002Z,70.85
2018-06-09T03:53:22.171Z,70.61
2018-06-09T03:54:28.362Z,70.74
2018-06-09T03:55:34.568Z,70.71
2018-06-09T03:56:40.855Z,71.01
2018-06-09T03:57:47.180Z,70.83
2018-06-09T03:58:53.416Z,70.89
2018-06-09T03:59:59.612Z,70.78
2018-06-09T04:01:05.563Z,70.58
2018-06-09T04:02:11.746Z,70.36
2018-06-09T04:03:17.967Z,70.48
2018-06-09T04:04:24.237Z,70.18
2018-06-09T04:05:30.455Z,68.76
2018-06-09T04:06:36.619Z,69.65
2018-06-09T04:07:42.926Z,69.64
2018-06-09T04:08:49.202Z,69.76
2018-06-09T04:09:55.564Z,70.37
2018-06-09T04:11:01.829Z,69.97
2018-06-09T04:12:08.028Z,69.83
2018-06-09T04:13:14.228Z,69.02
2018-06-09T04:14:20.534Z,68.84
2018-06-09T04:15:26.412Z,69.40
2018-06-09T04:16:32.718Z,69.43
2018-06-09T04:17:38.917Z,70.00
2018-06-09T04:18:45.131Z,69.10
2018-06-09T04:19:51.342Z,69.49
2018-06-09T04:20:57.583Z,69.13
2018-06-09T04:22:03.837Z,68.74
2018-06-09T04:23:10.037Z,68.49
2018-06-09T04:24:16.201Z,68.90
2018-06-09T04:25:22.405Z,68.39
2018-06-09T04:26:28.646Z,68.41
2018-06-09T04:27:34.900Z,68.75
2018-06-09T04:28:41.143Z,68.27
2018-06-09T04:29:47.328Z,68.36
2018-06-09T04:30:53.220Z,68.45
2018-06-09T04:31:59.468Z,68.08
2018-06-09T04:33:05.652Z,68.08
2018-06-09T04:34:11.825Z,67.71
2018-06-09T04:35:18.126Z,67.86
2018-06-09T04:36:24.315Z,68.04
2018-06-09T04:37:30.481Z,68.25
2018-06-09T04:38:36.729Z,67.73
2018-06-09T04:39:42.927Z,68.61
2018-06-09T04:40:49.107Z,68.21
2018-06-09T04:41:55.308Z,67.74
2018-06-09T04:43:01.100Z,68.24
2018-06-09T04:44:07.267Z,68.64
2018-06-09T04:45:13.513Z,69.29
2018-06-09T04:46:19.776Z,69.30
2018-06-09T04:47:25.956Z,69.26
2018-06-09T04:48:32.153Z,69.20
2018-06-09T04:49:38.354Z,68.82
2018-06-09T04:50:44.559Z,68.86
2018-06-09T04:51:50.799Z,69.44
2018-06-09T04:52:56.981Z,68.50
2018-06-09T04:54:03.190Z,67.88
2018-06-09T04:55:09.328Z,68.02
2018-06-09T04:56:15.511Z,67.60
2018-06-09T04:57:21.768Z,67.55
2018-06-09T04:58:28.025Z,67.56
2018-06-09T04:59:34.327Z,67.15
2018-06-09T05:00:40.501Z,68.15
2018-06-09T05:01:46.722Z,67.59
2018-06-09T05:02:52.919Z,67.54
2018-06-09T05:03:59.131Z,67.18
2018-06-09T05:05:04.988Z,66.80
2018-06-09T05:06:11.254Z,66.33
2018-06-09T05:07:17.538Z,66.51
2018-06-09T05:08:23.893Z,68.02
2018-06-09T05:09:30.074Z,68.29
2018-06-09T05:10:36.255Z,68.17
2018-06-09T05:11:42.626Z,67.27
2018-06-09T05:12:48.887Z,66.56
2018-06-09T05:13:55.054Z,67.22
2018-06-09T05:15:01.265Z,66.26
2018-06-09T05:16:07.226Z,66.71
2018-06-09T05:17:13.419Z,66.75
2018-06-09T05:18:19.273Z,66.99
2018-06-09T05:19:25.654Z,66.75
2018-06-09T05:20:31.866Z,68.17
2018-06-09T05:21:38.019Z,67.75
2018-06-09T05:22:44.227Z,67.27
2018-06-09T05:23:50.624Z,66.83
2018-06-09T05:24:56.809Z,66.82
2018-06-09T05:26:03.684Z,66.43
2018-06-09T05:27:09.911Z,66.67
2018-06-09T05:28:16.117Z,67.05
2018-06-09T05:29:22.631Z,66.59
2018-06-09T05:30:29.137Z,67.03
2018-06-09T05:31:35.391Z,67.54
2018-06-09T05:32:41.959Z,67.61
2018-06-09T05:33:48.154Z,67.33
2018-06-09T05:34:54.389Z,66.38
2018-06-09T05:36:00.609Z,67.29
2018-06-09T05:37:06.480Z,67.28
2018-06-09T05:38:12.681Z,67.29
2018-06-09T05:39:18.849Z,67.90
2018-06-09T05:40:25.000Z,68.44
2018-06-09T05:41:31.197Z,68.07
2018-06-09T05:42:37.430Z,67.67
2018-06-09T05:43:43.816Z,66.90
2018-06-09T05:44:50.101Z,66.83
2018-06-09T05:45:56.391Z,66.97
2018-06-09T05:47:02.712Z,66.21
2018-06-09T05:48:09.162Z,66.22
2018-06-09T05:49:15.709Z,66.25
2018-06-09T05:50:21.921Z,66.57
2018-06-09T05:51:28.136Z,67.19
2018-06-09T05:52:34.365Z,67.76
2018-06-09T05:53:40.571Z,67.80
2018-06-09T05:54:46.807Z,67.08
2018-06-09T05:55:53.183Z,67.43
2018-06-09T05:56:59.477Z,67.32
2018-06-09T05:58:05.697Z,68.22
2018-06-09T05:59:12.329Z,68.09
2018-06-09T06:00:18.648Z,67.62
2018-06-09T06:01:28.166Z,67.10
2018-06-09T06:02:34.998Z,67.27
2018-06-09T06:03:41.221Z,66.21
2018-06-09T06:04:47.552Z,65.99
2018-06-09T06:05:54.333Z,66.42
2018-06-09T06:07:00.723Z,66.81
2018-06-09T06:09:12.277Z,67.37
2018-06-09T06:10:18.730Z,67.09
2018-06-09T06:11:24.892Z,66.99
2018-06-09T06:12:32.689Z,67.44
2018-06-09T06:13:39.616Z,66.42
2018-06-09T06:14:46.018Z,67.09
2018-06-09T06:15:52.016Z,67.74
2018-06-09T06:16:58.298Z,67.43
2018-06-09T06:18:04.727Z,66.48
2018-06-09T06:19:11.089Z,66.97
2018-06-09T06:20:17.723Z,67.08
2018-06-09T06:21:24.229Z,67.32
2018-06-09T06:22:30.690Z,67.04
2018-06-09T06:23:36.701Z,67.19
2018-06-09T06:24:43.233Z,68.02
2018-06-09T06:25:49.752Z,67.93
2018-06-09T06:26:56.121Z,68.06
2018-06-09T06:28:02.489Z,67.41
2018-06-09T06:29:09.063Z,68.68
2018-06-09T06:30:15.347Z,68.08
2018-06-09T06:31:21.764Z,68.89
2018-06-09T06:32:28.073Z,69.39
2018-06-09T06:33:34.023Z,68.55
2018-06-09T06:34:40.199Z,67.61
2018-06-09T06:35:46.509Z,67.73
2018-06-09T06:36:52.815Z,67.54
2018-06-09T06:37:59.123Z,67.70
2018-06-09T06:39:04.947Z,67.64
2018-06-09T06:40:10.976Z,68.45
2018-06-09T06:41:17.453Z,67.95
2018-06-09T06:42:23.756Z,69.14
2018-06-09T06:43:30.106Z,67.56
2018-06-09T06:44:36.372Z,67.76
2018-06-09T06:45:42.411Z,67.54
2018-06-09T06:46:48.856Z,67.44
2018-06-09T06:47:55.247Z,67.48
2018-06-09T06:49:01.593Z,66.85
2018-06-09T06:50:07.672Z,66.20
2018-06-09T06:51:14.046Z,67.19
2018-06-09T06:52:21.028Z,66.87
2018-06-09T06:53:27.429Z,67.04
2018-06-09T06:54:33.615Z,66.91
2018-06-09T06:55:40.064Z,66.56
2018-06-09T06:56:46.067Z,65.91
2018-06-09T06:57:52.072Z,67.04
2018-06-09T06:58:58.351Z,67.54
2018-06-09T07:00:03.936Z,67.43
2018-06-09T07:01:09.914Z,65.14
2018-06-09T07:02:15.949Z,65.88
2018-06-09T07:03:22.097Z,64.84
2018-06-09T07:04:28.345Z,64.43
2018-06-09T07:05:34.771Z,64.61
2018-06-09T07:06:40.886Z,64.42
2018-06-09T07:07:47.293Z,63.76
2018-06-09T07:08:53.448Z,63.21
2018-06-09T07:09:59.689Z,63.86
2018-06-09T07:11:05.910Z,64.62
2018-06-09T07:12:11.659Z,64.71
2018-06-09T07:13:18.532Z,64.99
2018-06-09T07:14:24.630Z,65.10
2018-06-09T07:15:30.576Z,65.17
2018-06-09T07:16:36.435Z,65.07
2018-06-09T07:17:42.384Z,64.98
2018-06-09T07:18:48.360Z,65.57
2018-06-09T07:19:54.328Z,64.89
2018-06-09T07:21:00.259Z,64.88
2018-06-09T07:22:06.135Z,64.72
2018-06-09T07:23:12.051Z,64.96
2018-06-09T07:24:18.726Z,65.55
2018-06-09T07:25:24.854Z,64.73
2018-06-09T07:26:30.744Z,64.83
2018-06-09T07:27:36.677Z,64.16
2018-06-09T07:28:44.341Z,63.85
2018-06-09T07:29:51.088Z,65.12
2018-06-09T07:30:56.632Z,64.08
2018-06-09T07:32:02.278Z,64.16
2018-06-09T07:33:08.194Z,64.41
2018-06-09T07:34:14.463Z,64.46
2018-06-09T07:35:20.379Z,63.25
2018-06-09T07:36:26.310Z,62.52
2018-06-09T07:37:32.335Z,62.78
2018-06-09T07:38:38.272Z,63.00
2018-06-09T07:39:44.180Z,63.68
2018-06-09T07:40:50.069Z,63.59
2018-06-09T07:41:56.077Z,64.92
2018-06-09T07:43:01.975Z,64.12
2018-06-09T07:44:07.902Z,62.76
2018-06-09T07:45:13.843Z,62.40
2018-06-09T07:46:19.764Z,63.41
2018-06-09T07:47:25.730Z,64.70
2018-06-09T07:48:31.363Z,63.14
2018-06-09T07:49:37.313Z,62.94
2018-06-09T07:50:43.216Z,63.00
2018-06-09T07:51:49.119Z,62.24
2018-06-09T07:52:55.109Z,63.09
2018-06-09T07:54:01.051Z,62.05
2018-06-09T07:55:06.503Z,62.40
2018-06-09T07:56:12.423Z,61.76
2018-06-09T07:57:18.342Z,61.47
2018-06-09T07:58:24.306Z,60.01
2018-06-09T07:59:30.245Z,60.39
2018-06-09T08:00:36.375Z,61.05
2018-06-09T08:01:42.263Z,60.21
2018-06-09T08:02:48.203Z,59.97
2018-06-09T08:03:54.071Z,59.00
2018-06-09T08:05:00.051Z,59.46
2018-06-09T08:06:06.030Z,59.74
2018-06-09T08:07:11.957Z,60.20
2018-06-09T08:08:17.584Z,59.37
2018-06-09T08:09:23.515Z,59.67
2018-06-09T08:10:30.204Z,61.01
2018-06-09T08:11:36.812Z,61.02
2018-06-09T08:12:42.684Z,61.05
2018-06-09T08:13:48.602Z,59.43
2018-06-09T08:14:54.498Z,59.32
2018-06-09T08:16:00.495Z,59.29
2018-06-09T08:17:06.415Z,60.86
2018-06-09T08:18:12.332Z,60.78
2018-06-09T08:19:18.309Z,60.61
2018-06-09T08:20:24.322Z,61.55
2018-06-09T08:21:30.233Z,61.67
2018-06-09T08:22:36.177Z,61.03
2018-06-09T08:23:42.094Z,61.10
2018-06-09T08:24:48.067Z,60.54
2018-06-09T08:25:53.982Z,61.29
2018-06-09T08:26:59.898Z,61.44
2018-06-09T08:28:05.503Z,61.34
2018-06-09T08:29:11.424Z,60.55
2018-06-09T08:30:17.571Z,60.20
2018-06-09T08:31:23.483Z,59.08
2018-06-09T08:32:29.467Z,58.98
2018-06-09T08:33:35.357Z,58.48
2018-06-09T08:34:41.292Z,58.34
2018-06-09T08:35:48.840Z,59.84
2018-06-09T08:36:56.333Z,59.40
2018-06-09T08:38:02.273Z,58.79
2018-06-09T08:39:07.910Z,57.58
2018-06-09T08:40:13.941Z,58.91
2018-06-09T08:41:19.883Z,57.59
2018-06-09T08:42:25.787Z,58.33
2018-06-09T08:43:31.673Z,57.98
2018-06-09T08:44:37.636Z,58.43
2018-06-09T08:45:43.562Z,58.33
2018-06-09T08:46:49.500Z,58.32
2018-06-09T08:47:55.470Z,57.70
2018-06-09T08:49:01.427Z,57.00
2018-06-09T08:50:07.346Z,57.17
2018-06-09T08:51:13.268Z,57.58
2018-06-09T08:52:19.155Z,56.25
2018-06-09T08:53:25.011Z,56.60
2018-06-09T08:54:30.601Z,55.96
2018-06-09T08:55:36.662Z,57.08
2018-06-09T08:56:42.616Z,54.44
2018-06-09T08:57:48.461Z,55.53
2018-06-09T08:58:54.314Z,55.50
2018-06-09T09:00:00.259Z,55.94
2018-06-09T09:01:06.181Z,54.88
2018-06-09T09:02:12.254Z,54.48
2018-06-09T09:03:18.192Z,54.52
2018-06-09T09:04:24.086Z,55.09
2018-06-09T09:05:29.984Z,54.78
2018-06-09T09:06:35.920Z,54.43
2018-06-09T09:07:41.835Z,54.95
2018-06-09T09:08:47.748Z,54.07
2018-06-09T09:09:53.642Z,55.79
2018-06-09T09:10:59.544Z,53.80
2018-06-09T09:12:05.471Z,54.43
2018-06-09T09:13:11.141Z,53.11
2018-06-09T09:14:17.003Z,54.08
2018-06-09T09:15:22.877Z,52.43
2018-06-09T09:16:28.844Z,50.94
2018-06-09T09:17:34.727Z,51.02
2018-06-09T09:18:40.637Z,51.34
2018-06-09T09:19:46.567Z,51.06
2018-06-09T09:20:52.138Z,50.78
2018-06-09T09:21:58.017Z,50.89
2018-06-09T09:23:04.012Z,50.21
2018-06-09T09:24:09.857Z,49.76
2018-06-09T09:25:15.786Z,51.61
2018-06-09T09:26:21.707Z,50.78
2018-06-09T09:27:27.597Z,52.24
2018-06-09T09:28:33.501Z,51.16
2018-06-09T09:29:39.462Z,49.97
2018-06-09T09:30:45.490Z,49.35
2018-06-09T09:31:51.462Z,50.57
2018-06-09T09:32:57.446Z,49.99
2018-06-09T09:34:03.443Z,50.15
2018-06-09T09:35:09.121Z,51.29
2018-06-09T09:36:15.091Z,49.26
2018-06-09T09:37:20.992Z,48.95
2018-06-09T09:38:26.892Z,49.25
2018-06-09T09:39:32.800Z,50.17
2018-06-09T09:40:38.723Z,50.22
2018-06-09T09:41:44.659Z,49.89
2018-06-09T09:42:50.582Z,49.92
2018-06-09T09:43:56.504Z,47.99
2018-06-09T09:45:02.421Z,46.53
2018-06-09T09:46:08.501Z,45.91
2018-06-09T09:47:14.083Z,46.34
2018-06-09T09:48:20.021Z,44.72
2018-06-09T09:49:25.959Z,45.85
2018-06-09T09:50:31.910Z,45.23
2018-06-09T09:51:37.839Z,43.85
2018-06-09T09:52:43.534Z,41.81
2018-06-09T09:53:49.489Z,42.29
2018-06-09T09:54:55.499Z,43.06
2018-06-09T09:56:01.444Z,43.80
2018-06-09T09:57:07.366Z,44.79
2018-06-09T09:58:13.313Z,43.98
2018-06-09T09:59:19.361Z,44.42
2018-06-09T10:00:25.070Z,44.09
2018-06-09T10:01:30.987Z,46.28
2018-06-09T10:02:36.881Z,46.10
2018-06-09T10:03:42.786Z,45.20
2018-06-09T10:04:48.728Z,42.40
2018-06-09T10:05:54.712Z,42.57
2018-06-09T10:07:00.659Z,42.17
2018-06-09T10:08:06.215Z,41.03
2018-06-09T10:09:12.102Z,41.13
2018-06-09T10:10:18.125Z,41.89
2018-06-09T10:11:24.181Z,41.56
2018-06-09T10:12:30.142Z,41.70
2018-06-09T10:13:36.043Z,42.04
2018-06-09T10:14:41.929Z,41.44
2018-06-09T10:15:47.877Z,40.61
2018-06-09T10:16:53.509Z,40.11
2018-06-09T10:17:59.443Z,40.95
2018-06-09T10:19:04.987Z,41.68
2018-06-09T10:20:10.868Z,42.13
2018-06-09T10:21:16.815Z,41.96
2018-06-09T10:22:22.776Z,42.08
2018-06-09T10:23:28.743Z,41.67
2018-06-09T10:24:34.657Z,41.94
2018-06-09T10:25:40.596Z,42.03
2018-06-09T10:26:46.498Z,42.31
2018-06-09T10:27:52.410Z,42.02
2018-06-09T10:28:58.387Z,41.69
2018-06-09T10:30:03.943Z,42.00
2018-06-09T10:31:09.933Z,43.30
2018-06-09T10:32:15.846Z,42.56
2018-06-09T10:33:21.804Z,42.84
2018-06-09T10:34:27.752Z,41.85
2018-06-09T10:35:33.684Z,42.19
2018-06-09T10:36:39.684Z,41.78
2018-06-09T10:37:45.632Z,42.31
2018-06-09T10:38:51.549Z,42.44
2018-06-09T10:39:57.460Z,42.87
2018-06-09T10:41:03.439Z,41.95
2018-06-09T10:42:09.414Z,41.86
2018-06-09T10:43:16.385Z,41.22
2018-06-09T10:44:22.327Z,41.49
2018-06-09T10:45:28.247Z,43.01
2018-06-09T10:46:34.205Z,39.95
2018-06-09T10:47:40.271Z,39.98
2018-06-09T10:48:46.156Z,41.61
2018-06-09T10:49:52.092Z,40.50
2018-06-09T10:50:58.056Z,40.40
2018-06-09T10:52:03.681Z,40.59
2018-06-09T10:53:09.591Z,40.71
2018-06-09T10:54:15.568Z,41.72
2018-06-09T10:55:21.498Z,40.77
2018-06-09T10:56:27.399Z,40.69
2018-06-09T10:57:33.352Z,40.86
2018-06-09T10:58:39.525Z,40.95
2018-06-09T10:59:45.506Z,41.60
2018-06-09T11:00:51.499Z,41.78
2018-06-09T11:01:57.434Z,41.83
2018-06-09T11:03:03.367Z,42.04
2018-06-09T11:04:09.304Z,42.38
2018-06-09T11:05:15.548Z,42.68
2018-06-09T11:06:21.548Z,41.79
2018-06-09T11:07:27.454Z,42.62
2018-06-09T11:08:33.374Z,41.17
2018-06-09T11:09:39.291Z,40.62
2018-06-09T11:10:44.986Z,42.18
2018-06-09T11:11:50.953Z,42.22
2018-06-09T11:12:56.814Z,40.48
2018-06-09T11:14:02.720Z,40.43
2018-06-09T11:15:08.708Z,40.35
2018-06-09T11:16:14.660Z,40.28
2018-06-09T11:17:20.648Z,40.00
2018-06-09T11:18:26.518Z,39.11
2018-06-09T11:19:32.426Z,39.46
2018-06-09T11:20:38.328Z,39.93
2018-06-09T11:21:44.288Z,39.99
2018-06-09T11:22:50.289Z,40.05
2018-06-09T11:23:55.854Z,40.84
2018-06-09T11:25:01.808Z,42.30
2018-06-09T11:26:07.702Z,41.40
2018-06-09T11:27:13.605Z,40.70
2018-06-09T11:28:19.523Z,41.65
2018-06-09T11:29:25.468Z,42.48
2018-06-09T11:30:31.370Z,39.72
2018-06-09T11:31:37.370Z,40.07
2018-06-09T11:32:43.285Z,39.57
2018-06-09T11:33:49.167Z,39.74
2018-06-09T11:34:55.058Z,39.23
2018-06-09T11:36:00.958Z,37.86
2018-06-09T11:37:06.906Z,34.78
2018-06-09T11:38:12.984Z,35.69
2018-06-09T11:39:18.957Z,35.63
2018-06-09T11:40:24.868Z,35.55
2018-06-09T11:41:30.797Z,33.93
2018-06-09T11:42:36.449Z,34.70
2018-06-09T11:43:42.378Z,34.60
2018-06-09T11:44:48.318Z,34.87
2018-06-09T11:45:54.262Z,35.53
2018-06-09T11:47:00.465Z,34.55
2018-06-09T11:48:06.435Z,33.35
2018-06-09T11:49:12.358Z,34.04
2018-06-09T11:50:18.370Z,33.11
2018-06-09T11:51:24.265Z,33.89
2018-06-09T11:52:30.191Z,33.31
2018-06-09T11:53:36.084Z,33.08
2018-06-09T11:54:42.013Z,33.93
2018-06-09T11:55:47.940Z,33.74
2018-06-09T11:56:53.927Z,33.16
2018-06-09T11:57:59.847Z,33.69
2018-06-09T11:59:05.535Z,33.51
2018-06-09T12:00:11.457Z,33.28
2018-06-09T12:01:17.424Z,33.35
2018-06-09T12:02:23.351Z,34.10
2018-06-09T12:03:29.307Z,33.44
2018-06-09T12:04:35.248Z,34.63
2018-06-09T12:05:41.205Z,33.56
2018-06-09T12:06:47.288Z,33.02
2018-06-09T12:07:53.295Z,34.07
2018-06-09T12:08:59.319Z,34.74
2018-06-09T12:10:04.937Z,35.11
2018-06-09T12:11:10.876Z,34.46
2018-06-09T12:12:16.923Z,35.31
2018-06-09T12:13:22.563Z,33.89
2018-06-09T12:14:29.983Z,33.89
2018-06-09T12:15:35.950Z,35.13
2018-06-09T12:16:41.978Z,34.02
2018-06-09T12:17:48.258Z,34.43
2018-06-09T12:18:54.325Z,34.42
2018-06-09T12:20:00.420Z,33.82
2018-06-09T12:21:06.497Z,32.64
2018-06-09T12:22:12.409Z,32.63
2018-06-09T12:23:18.434Z,33.14
2018-06-09T12:24:24.369Z,33.17
2018-06-09T12:25:30.271Z,32.64
2018-06-09T12:26:36.237Z,33.66
2018-06-09T12:27:42.201Z,32.71
2018-06-09T12:28:48.082Z,33.75
2018-06-09T12:29:53.977Z,34.90
2018-06-09T12:30:59.951Z,34.73
2018-06-09T12:32:05.897Z,34.08
2018-06-09T12:33:11.899Z,34.39
2018-06-09T12:34:17.818Z,34.58
2018-06-09T12:35:23.784Z,35.15
2018-06-09T12:36:29.641Z,35.59
2018-06-09T12:37:35.610Z,35.55
2018-06-09T12:38:41.599Z,35.29
2018-06-09T12:39:47.571Z,35.22
2018-06-09T12:40:53.486Z,36.12
2018-06-09T12:41:59.407Z,36.90
2018-06-09T12:43:05.042Z,35.29
2018-06-09T12:44:10.990Z,33.50
2018-06-09T12:45:16.934Z,35.01
2018-06-09T12:46:22.816Z,34.34
2018-06-09T12:47:28.751Z,32.11
2018-06-09T12:48:34.693Z,32.12
2018-06-09T12:49:40.825Z,31.67
2018-06-09T12:50:46.766Z,32.49
2018-06-09T12:51:52.658Z,32.10
2018-06-09T12:52:58.605Z,32.73
2018-06-09T12:54:04.612Z,32.27
2018-06-09T12:55:10.556Z,32.30
2018-06-09T12:56:16.499Z,31.30
2018-06-09T12:57:22.406Z,30.60
2018-06-09T12:58:28.513Z,31.40
2018-06-09T12:59:34.438Z,31.32
2018-06-09T13:00:40.395Z,32.06
2018-06-09T13:01:46.402Z,31.00
2018-06-09T13:02:52.354Z,31.70
2018-06-09T13:03:58.227Z,30.37
2018-06-09T13:05:03.806Z,32.67
2018-06-09T13:06:09.816Z,32.14
2018-06-09T13:07:16.603Z,32.38
2018-06-09T13:08:22.515Z,32.13
2018-06-09T13:09:28.474Z,33.89
2018-06-09T13:10:34.441Z,31.57
2018-06-09T13:11:40.428Z,29.70
2018-06-09T13:12:46.336Z,29.51
2018-06-09T13:13:52.211Z,29.24
2018-06-09T13:14:58.129Z,30.81
2018-06-09T13:16:04.109Z,29.76
2018-06-09T13:17:10.100Z,30.21
2018-06-09T13:18:16.149Z,28.76
2018-06-09T13:19:22.042Z,29.93
2018-06-09T13:20:28.008Z,30.44
2018-06-09T13:21:33.998Z,28.86
2018-06-09T13:22:39.906Z,30.07
2018-06-09T13:23:45.882Z,29.11
2018-06-09T13:24:51.841Z,30.43
2018-06-09T13:25:57.926Z,30.22
2018-06-09T13:27:03.853Z,29.36
2018-06-09T13:28:09.521Z,29.15
2018-06-09T13:29:15.371Z,28.94
2018-06-09T13:30:21.337Z,30.31
2018-06-09T13:31:27.479Z,30.22
2018-06-09T13:32:33.350Z,31.35
2018-06-09T13:33:39.411Z,31.92
2018-06-09T13:34:45.454Z,31.51
2018-06-09T13:35:51.082Z,31.16
2018-06-09T13:36:57.083Z,30.75
2018-06-09T13:38:03.079Z,31.13
2018-06-09T13:39:09.087Z,31.03
2018-06-09T13:40:15.060Z,32.31
2018-06-09T13:41:21.020Z,32.33
2018-06-09T13:42:27.148Z,33.14
2018-06-09T13:43:32.780Z,32.60
2018-06-09T13:44:38.738Z,32.15
2018-06-09T13:45:44.699Z,31.46
2018-06-09T13:46:52.275Z,30.72
2018-06-09T13:47:58.743Z,31.90
2018-06-09T13:49:04.388Z,31.76
2018-06-09T13:50:10.499Z,31.64
2018-06-09T13:51:16.153Z,32.00
2018-06-09T13:52:22.080Z,32.45
2018-06-09T13:53:28.050Z,32.79
2018-06-09T13:54:34.054Z,32.21
2018-06-09T13:55:40.132Z,32.68
2018-06-09T13:56:45.985Z,32.07
2018-06-09T13:57:52.027Z,32.86
2018-06-09T13:58:58.058Z,33.18
2018-06-09T14:00:03.851Z,32.98
2018-06-09T14:01:09.818Z,33.38
2018-06-09T14:02:15.748Z,33.20
2018-06-09T14:03:21.730Z,32.62
2018-06-09T14:04:27.671Z,34.43
2018-06-09T14:05:33.592Z,32.90
2018-06-09T14:06:39.553Z,32.72
2018-06-09T14:07:45.466Z,32.21
2018-06-09T14:08:51.419Z,31.94
2018-06-09T14:09:57.458Z,31.77
2018-06-09T14:11:03.406Z,31.42
2018-06-09T14:12:09.107Z,31.04
2018-06-09T14:13:15.026Z,31.70
2018-06-09T14:14:21.115Z,32.17